Aviation Digital Data Service (ADDS)

Output produced by METARs form (1748 UTC 31 October 2014)
found at http://www.aviationweather.gov/adds/metars/
 
KSEG 311653Z AUTO 22004KT 10SM OVC060 09/02 A2995 RMK AO2 SLP145 T00940022
KSEG 311553Z AUTO 00000KT 10SM OVC060 09/02 A2998 RMK AO2 SLP154 T00890022
KSEG 311453Z AUTO 00000KT 10SM OVC060 07/03 A3000 RMK AO2 SLP160 T00720028 58006
KSEG 311353Z AUTO 36003KT 10SM OVC060 06/02 A3001 RMK AO2 SLP164 T00610022
KSEG 311253Z AUTO 00000KT 10SM OVC055 05/03 A3002 RMK AO2 SLP169 T00500033
KSEG 311153Z AUTO 00000KT 10SM OVC055 05/03 A3002 RMK AO2 SLP167 T00500028 10050 20022 58001
KSEG 311053Z AUTO 00000KT 10SM OVC055 04/03 A3002 RMK AO2 SLP167 T00440033
KSEG 310953Z AUTO 00000KT 10SM OVC055 04/03 A3002 RMK AO2 SLP167 T00440028
KSEG 310853Z AUTO 00000KT 10SM OVC055 03/02 A3002 RMK AO2 SLP167 T00330022 58005
KSEG 310753Z AUTO 00000KT 10SM OVC060 03/02 A3003 RMK AO2 SLP172 T00280017
KSEG 310653Z AUTO 34003KT 10SM CLR 02/01 A3003 RMK AO2 SLP169 T00220011
KSEG 310553Z AUTO 35003KT 10SM CLR 03/02 A3003 RMK AO2 SLP172 T00330022 10078 20033 56004
KSEG 310453Z AUTO 00000KT 8SM SCT055 06/04 A3004 RMK AO2 SLP174 T00560039 401280022
KSEG 310353Z AUTO 00000KT 7SM OVC055 07/06 A3003 RMK AO2 SLP171 T00720056
KSEG 310253Z AUTO 00000KT 10SM FEW047 OVC055 08/06 A3005 RMK AO2 SLP177 T00780056 53003
KSEG 310153Z AUTO 00000KT 8SM OVC055 08/05 A3005 RMK AO2 SLP176 T00780050
KSEG 310053Z AUTO 00000KT 8SM OVC055 08/04 A3004 RMK AO2 SLP175 T00780044
KSEG 302353Z AUTO 00000KT 10SM OVC060 07/05 A3004 RMK AO2 SLP175 T00720050 10128 20072 51005
KSEG 302253Z AUTO 00000KT 10SM SCT060 09/04 A3004 RMK AO2 SLP174 T00890044
KSEG 302153Z AUTO 05004KT 10SM OVC055 11/03 A3003 RMK AO2 SLP170 T01110028
KSEG 302053Z AUTO 00000KT 10SM OVC050 12/03 A3002 RMK AO2 SLP169 T01170028 55002
KSEG 301953Z AUTO 00000KT 10SM OVC055 12/01 A3002 RMK AO2 SLP168 T01170011
KSEG 301853Z AUTO 34005KT 10SM OVC050 13/02 A3002 RMK AO2 SLP167 T01280022
KSEG 301753Z AUTO 01004KT 10SM OVC050 12/02 A3003 RMK AO2 SLP171 T01220022 10128 20039 58008
KSEG 301653Z AUTO VRB05KT 10SM OVC050 12/03 A3005 RMK AO2 SLP176 T01220028
KSEG 301553Z AUTO 33006KT 10SM FEW044 OVC055 11/03 A3006 RMK AO2 SLP180 T01110028
KSEG 301453Z AUTO 35005KT 10SM SCT033 11/04 A3006 RMK AO2 SLP179 T01110039 50006
KSEG 301353Z AUTO 00000KT 10SM FEW070 08/07 A3006 RMK AO2 SLP180 T00830067
KSEG 301253Z AUTO 00000KT 6SM BR BKN040 OVC070 06/04 A3006 RMK AO2 SLP181 T00560044
KSEG 301153Z AUTO 00000KT 7SM OVC070 04/03 A3004 RMK AO2 SLP174 70011 I6000 T00390033 10050 20022 51013
KSEG 301053Z AUTO 00000KT 7SM FEW001 FEW045 BKN055 03/02 A3003 RMK AO2 SLP171 T00280022
KSEG 300953Z AUTO 00000KT 7SM FEW001 SCT042 02/01 A3001 RMK AO2 SLP164 I1000 T00220011
KSEG 300932Z AUTO 00000KT 8SM FEW001 02/01 A3001 RMK AO2 T00220011
KSEG 300853Z AUTO 00000KT 6SM BR FEW040 03/02 A3000 RMK AO2 SLP160 T00280017 53004
KSEG 300827Z AUTO 00000KT 6SM BR SCT001 03/02 A2999 RMK AO2 T00280017
KSEG 300800Z AUTO 32003KT 8SM BKN001 03/02 A2999 RMK AO2 T00330022
KSEG 300753Z AUTO 00000KT 8SM SCT001 03/02 A2999 RMK AO2 SLP156 T00330022
KSEG 300751Z AUTO 00000KT 8SM SCT001 03/02 A2999 RMK AO2
KSEG 300653Z AUTO 00000KT 5SM BR CLR 04/03 A2999 RMK AO2 SLP156 T00390028
KSEG 300553Z AUTO 00000KT 10SM OVC075 05/04 A2999 RMK AO2 SLP156 T00500044 10083 20044 52002